LOT281 EPWA-EGLL
Flight info
| Callsign | LOT281 |
|---|---|
| Flight time | N/A |
| Altitude | 36000 |
| Route | LOLSI DCT DIBLO DCT INDIG DCT SUBIX DCT HLZ DCT ABNED L980 LOGAN |
| Aircraft | B738/M-SDE2E3FGHIRWXY/LB1 |
Departure
| Time | N/A |
|---|---|
| Airport | Warsaw Chopin Airport (EPWA) |
Arrival
| Time | 2026-05-05 15:21 |
|---|---|
| Airport | London Heathrow Airport (EGLL) |
| Time | Latitude | Longitude | Altitude | Speed | Heading |
|---|---|---|---|---|---|
| 2026-05-05 15:15 | 51.58908 | -0.77766 | 5564 ft | 286 kts | 242° |
| 2026-05-05 15:16 | 51.57518 | -0.79982 | 5224 ft | 286 kts | 206° |
| 2026-05-05 15:16 | 51.55593 | -0.80565 | 4886 ft | 283 kts | 172° |
| 2026-05-05 15:16 | 51.53655 | -0.80039 | 4529 ft | 284 kts | 169° |
| 2026-05-05 15:16 | 51.51675 | -0.79645 | 4109 ft | 289 kts | 173° |
| 2026-05-05 15:17 | 51.49710 | -0.79100 | 3714 ft | 282 kts | 155° |
| 2026-05-05 15:17 | 51.48259 | -0.77244 | 3558 ft | 260 kts | 120° |
| 2026-05-05 15:17 | 51.47715 | -0.74615 | 3312 ft | 243 kts | 92° |
| 2026-05-05 15:17 | 51.47695 | -0.71949 | 3005 ft | 236 kts | 87° |
| 2026-05-05 15:18 | 51.47707 | -0.69342 | 2691 ft | 231 kts | 88° |
| 2026-05-05 15:18 | 51.47711 | -0.66784 | 2383 ft | 226 kts | 88° |
| 2026-05-05 15:18 | 51.47713 | -0.64314 | 2103 ft | 216 kts | 87° |
| 2026-05-05 15:18 | 51.47717 | -0.61968 | 1802 ft | 205 kts | 87° |
| 2026-05-05 15:19 | 51.47721 | -0.59795 | 1528 ft | 190 kts | 89° |
| 2026-05-05 15:19 | 51.47725 | -0.57738 | 1321 ft | 172 kts | 87° |
| 2026-05-05 15:19 | 51.47728 | -0.55933 | 1157 ft | 155 kts | 87° |
| 2026-05-05 15:19 | 51.47720 | -0.54288 | 915 ft | 146 kts | 86° |
| 2026-05-05 15:20 | 51.47733 | -0.52662 | 697 ft | 146 kts | 87° |
| 2026-05-05 15:20 | 51.47735 | -0.51034 | 448 ft | 146 kts | 87° |
| 2026-05-05 15:20 | 51.47748 | -0.49416 | 242 ft | 145 kts | 86° |
| 2026-05-05 15:20 | 51.47753 | -0.47759 | 91 ft | 150 kts | 88° |
| 2026-05-05 15:21 | 51.47757 | -0.46247 | 89 ft | 116 kts | 89° |
| 2026-05-05 15:21 | 51.47763 | -0.45198 | 87 ft | 72 kts | 90° |
| 2026-05-05 15:21 | 51.47743 | -0.44529 | 87 ft | 47 kts | 104° |
| 2026-05-05 15:21 | 51.47675 | -0.44303 | 86 ft | 16 kts | 116° |
| 2026-05-05 15:22 | 51.47638 | -0.44231 | 87 ft | 6 kts | 152° |
| 2026-05-05 15:22 | 51.47631 | -0.44227 | 87 ft | 0 kts | 162° |
| 2026-05-05 15:23 | 51.47630 | -0.44227 | 87 ft | 1 kts | 162° |
| 2026-05-05 15:23 | 51.47603 | -0.44243 | 85 ft | 9 kts | 232° |
| 2026-05-05 15:23 | 51.47602 | -0.44373 | 85 ft | 13 kts | 270° |
| 2026-05-05 15:23 | 51.47599 | -0.44517 | 85 ft | 13 kts | 268° |
| 2026-05-05 15:24 | 51.47587 | -0.44650 | 88 ft | 12 kts | 215° |
| 2026-05-05 15:24 | 51.47509 | -0.44625 | 89 ft | 12 kts | 123° |
| 2026-05-05 15:24 | 51.47444 | -0.44559 | 85 ft | 12 kts | 181° |
| 2026-05-05 15:24 | 51.47362 | -0.44559 | 85 ft | 12 kts | 180° |
| 2026-05-05 15:25 | 51.47282 | -0.44559 | 85 ft | 11 kts | 180° |
| 2026-05-05 15:25 | 51.47205 | -0.44558 | 85 ft | 11 kts | 179° |
| 2026-05-05 15:25 | 51.47132 | -0.44557 | 85 ft | 11 kts | 180° |
| 2026-05-05 15:25 | 51.47089 | -0.44557 | 85 ft | 1 kts | 179° |
| 2026-05-05 15:26 | 51.47081 | -0.44557 | 85 ft | 1 kts | 179° |
| 2026-05-05 15:26 | 51.47073 | -0.44557 | 88 ft | 2 kts | 179° |
| 2026-05-05 15:26 | 51.47059 | -0.44557 | 85 ft | 2 kts | 182° |
| 2026-05-05 15:26 | 51.47045 | -0.44571 | 87 ft | 2 kts | 230° |
| 2026-05-05 15:27 | 51.47038 | -0.44604 | 87 ft | 4 kts | 258° |
| 2026-05-05 15:27 | 51.47037 | -0.44655 | 86 ft | 5 kts | 270° |
| 2026-05-05 15:27 | 51.47037 | -0.44676 | 85 ft | 0 kts | 270° |